createdAt,value
2019-05-15T00:00:48.215Z,58.09
2019-05-15T00:01:48.887Z,57.60
2019-05-15T00:02:48.245Z,58.09
2019-05-15T00:03:49.300Z,57.40
2019-05-15T00:04:49.153Z,57.70
2019-05-15T00:05:49.529Z,58.22
2019-05-15T00:06:48.629Z,57.37
2019-05-15T00:07:48.484Z,57.70
2019-05-15T00:08:48.139Z,58.12
2019-05-15T00:09:49.135Z,57.47
2019-05-15T00:10:48.534Z,57.06
2019-05-15T00:11:48.212Z,57.06
2019-05-15T00:12:48.601Z,57.26
2019-05-15T00:13:48.398Z,56.88
2019-05-15T00:14:48.570Z,58.01
2019-05-15T00:15:48.187Z,57.81
2019-05-15T00:16:48.239Z,58.33
2019-05-15T00:17:48.556Z,58.53
2019-05-15T00:18:48.346Z,58.94
2019-05-15T00:19:48.600Z,58.35
2019-05-15T00:20:49.574Z,57.42
2019-05-15T00:21:49.017Z,57.42
2019-05-15T00:22:48.437Z,57.29
2019-05-15T00:23:49.389Z,57.94
2019-05-15T00:24:48.808Z,57.63
2019-05-15T00:25:48.767Z,57.91
2019-05-15T00:26:48.140Z,57.70
2019-05-15T00:27:49.083Z,57.60
2019-05-15T00:28:48.049Z,57.60
2019-05-15T00:29:48.696Z,57.60
2019-05-15T00:30:48.211Z,57.60
2019-05-15T00:31:48.521Z,58.01
2019-05-15T00:32:48.672Z,57.53
2019-05-15T00:33:48.230Z,57.81
2019-05-15T00:34:48.817Z,57.84
2019-05-15T00:35:48.606Z,57.63
2019-05-15T00:36:48.889Z,58.04
2019-05-15T00:37:49.279Z,58.04
2019-05-15T00:38:48.318Z,57.84
2019-05-15T00:39:48.631Z,57.45
2019-05-15T00:40:49.609Z,57.42
2019-05-15T00:41:54.120Z,57.86
2019-05-15T00:42:48.950Z,58.38
2019-05-15T00:43:49.425Z,58.45
2019-05-15T00:44:49.347Z,58.25
2019-05-15T00:45:48.894Z,58.35
2019-05-15T00:46:48.758Z,58.59
2019-05-15T00:47:48.675Z,58.87
2019-05-15T00:48:48.725Z,59.10
2019-05-15T00:49:48.775Z,59.20
2019-05-15T00:50:48.554Z,59.08
2019-05-15T00:51:48.749Z,59.18
2019-05-15T00:52:48.451Z,58.87
2019-05-15T00:53:48.288Z,58.56
2019-05-15T00:54:48.448Z,58.38
2019-05-15T00:55:48.598Z,58.59
2019-05-15T00:56:48.457Z,59.20
2019-05-15T00:57:48.506Z,58.89
2019-05-15T00:58:48.202Z,59.10
2019-05-15T00:59:48.400Z,59.64
2019-05-15T01:00:48.700Z,59.64
2019-05-15T01:01:48.796Z,59.34
2019-05-15T01:02:48.707Z,59.34
2019-05-15T01:03:49.312Z,60.06
2019-05-15T01:04:48.026Z,59.44
2019-05-15T01:05:48.055Z,60.68
2019-05-15T01:06:48.763Z,60.58
2019-05-15T01:07:47.974Z,59.64
2019-05-15T01:08:48.271Z,59.55
2019-05-15T01:09:48.718Z,59.75
2019-05-15T01:10:48.818Z,59.85
2019-05-15T01:11:48.797Z,59.64
2019-05-15T01:12:48.631Z,60.16
2019-05-15T01:13:48.173Z,60.78
2019-05-15T01:14:48.980Z,60.06
2019-05-15T01:15:49.012Z,59.88
2019-05-15T01:16:48.995Z,60.30
2019-05-15T01:17:49.187Z,60.40
2019-05-15T01:18:49.142Z,60.09
2019-05-15T01:19:48.245Z,61.02
2019-05-15T01:20:49.359Z,60.84
2019-05-15T01:21:48.115Z,59.99
2019-05-15T01:22:48.571Z,60.60
2019-05-15T01:23:48.385Z,60.60
2019-05-15T01:24:48.546Z,60.60
2019-05-15T01:25:48.175Z,60.40
2019-05-15T01:26:49.222Z,60.71
2019-05-15T01:27:48.967Z,61.43
2019-05-15T01:28:49.518Z,60.16
2019-05-15T01:29:49.118Z,60.89
2019-05-15T01:30:48.624Z,61.02
2019-05-15T01:31:48.840Z,62.18
2019-05-15T01:32:48.524Z,61.46
2019-05-15T01:33:48.131Z,61.46
2019-05-15T01:34:49.017Z,61.46
2019-05-15T01:35:48.728Z,61.36
2019-05-15T01:36:48.953Z,61.87
2019-05-15T01:37:48.343Z,61.98
2019-05-15T01:38:48.058Z,62.39
2019-05-15T01:39:48.570Z,61.87
2019-05-15T01:40:48.515Z,61.33
2019-05-15T01:41:49.358Z,61.57
2019-05-15T01:42:46.971Z,61.15
2019-05-15T01:43:49.016Z,61.54
2019-05-15T01:44:48.425Z,62.46
2019-05-15T01:45:48.290Z,62.26
2019-05-15T01:46:48.299Z,62.16
2019-05-15T01:47:48.015Z,61.54
2019-05-15T01:48:49.115Z,61.64
2019-05-15T01:49:48.882Z,62.26
2019-05-15T01:50:49.035Z,62.16
2019-05-15T01:51:47.985Z,62.49
2019-05-15T01:52:47.940Z,62.77
2019-05-15T01:53:48.018Z,62.37
2019-05-15T01:54:48.894Z,61.46
2019-05-15T01:55:48.358Z,62.39
2019-05-15T01:56:49.237Z,62.39
2019-05-15T01:57:48.705Z,62.29
2019-05-15T01:58:48.743Z,62.32
2019-05-15T01:59:56.400Z,62.94
2019-05-15T02:00:48.341Z,63.04
2019-05-15T02:01:48.555Z,62.52
2019-05-15T02:02:48.132Z,62.91
2019-05-15T02:03:49.106Z,63.15
2019-05-15T02:04:48.610Z,63.04
2019-05-15T02:05:48.049Z,62.84
2019-05-15T02:06:48.241Z,62.84
2019-05-15T02:07:47.932Z,62.94
2019-05-15T02:08:46.727Z,62.55
2019-05-15T02:09:49.037Z,63.59
2019-05-15T02:10:49.137Z,64.00
2019-05-15T02:11:48.768Z,63.69
2019-05-15T02:12:48.100Z,64.00
2019-05-15T02:13:48.029Z,64.21
2019-05-15T02:14:48.525Z,64.00
2019-05-15T02:15:48.312Z,63.90
2019-05-15T02:16:48.335Z,64.83
2019-05-15T02:17:48.111Z,63.79
2019-05-15T02:18:48.729Z,65.04
2019-05-15T02:19:48.451Z,64.62
2019-05-15T02:20:49.147Z,63.90
2019-05-15T02:21:48.563Z,63.90
2019-05-15T02:22:48.503Z,63.90
2019-05-15T02:23:48.131Z,64.52
2019-05-15T02:24:48.240Z,63.69
2019-05-15T02:25:48.117Z,64.94
2019-05-15T02:26:48.208Z,64.83
2019-05-15T02:27:48.027Z,64.90
2019-05-15T02:28:48.635Z,63.87
2019-05-15T02:29:46.460Z,63.90
2019-05-15T02:30:50.051Z,63.69
2019-05-15T02:31:50.038Z,64.52
2019-05-15T02:32:49.890Z,63.87
2019-05-15T02:33:49.595Z,63.90
2019-05-15T02:34:49.741Z,64.73
2019-05-15T02:35:49.751Z,64.94
2019-05-15T02:36:49.265Z,64.21
2019-05-15T02:37:48.913Z,63.56
2019-05-15T02:38:48.674Z,63.87
2019-05-15T02:39:49.341Z,64.07
2019-05-15T02:40:49.191Z,63.97
2019-05-15T02:41:49.216Z,63.87
2019-05-15T02:42:49.058Z,64.07
2019-05-15T02:43:49.706Z,64.07
2019-05-15T02:44:49.754Z,64.07
2019-05-15T02:45:46.297Z,64.07
2019-05-15T02:46:49.669Z,63.66
2019-05-15T02:47:48.736Z,64.70
2019-05-15T02:48:48.902Z,63.56
2019-05-15T02:49:48.688Z,64.90
2019-05-15T02:50:49.830Z,64.52
2019-05-15T02:51:49.067Z,65.25
2019-05-15T02:52:49.510Z,65.32
2019-05-15T02:53:49.710Z,64.83
2019-05-15T02:54:49.490Z,65.35
2019-05-15T02:55:49.180Z,65.28
2019-05-15T02:56:46.174Z,66.11
2019-05-15T02:57:49.296Z,65.69
2019-05-15T02:58:48.817Z,66.31
2019-05-15T02:59:46.136Z,66.41
2019-05-15T03:00:49.561Z,66.31
2019-05-15T03:01:49.108Z,66.49
2019-05-15T03:02:46.104Z,66.52
2019-05-15T03:03:49.424Z,66.69
2019-05-15T03:04:48.602Z,66.83
2019-05-15T03:05:46.105Z,65.90
2019-05-15T03:06:49.356Z,66.62
2019-05-15T03:07:49.067Z,66.52
2019-05-15T03:08:49.217Z,66.41
2019-05-15T03:09:49.428Z,66.31
2019-05-15T03:10:49.368Z,66.31
2019-05-15T03:11:48.875Z,67.14
2019-05-15T03:12:49.319Z,67.07
2019-05-15T03:13:45.985Z,67.55
2019-05-15T03:14:48.880Z,67.45
2019-05-15T03:15:48.857Z,67.03
2019-05-15T03:16:45.970Z,66.83
2019-05-15T03:17:49.289Z,66.83
2019-05-15T03:18:45.944Z,67.42
2019-05-15T03:19:45.932Z,67.52
2019-05-15T03:20:45.927Z,66.72
2019-05-15T03:21:49.395Z,67.11
2019-05-15T03:22:49.043Z,66.83
2019-05-15T03:23:45.949Z,65.66
2019-05-15T03:24:45.862Z,66.41
2019-05-15T03:25:48.907Z,66.49
2019-05-15T03:26:45.867Z,65.90
2019-05-15T03:27:45.831Z,65.80
2019-05-15T03:28:45.820Z,66.52
2019-05-15T03:29:49.170Z,67.11
2019-05-15T03:32:01.209Z,66.41
2019-05-15T03:32:53.975Z,66.83
2019-05-15T03:33:47.031Z,66.62
2019-05-15T03:34:48.261Z,67.42
2019-05-15T03:35:45.798Z,67.24
2019-05-15T03:36:47.311Z,67.24
2019-05-15T03:37:49.022Z,66.52
2019-05-15T03:38:45.726Z,66.52
2019-05-15T03:39:50.804Z,66.41
2019-05-15T03:40:49.615Z,66.62
2019-05-15T03:41:45.687Z,67.07
2019-05-15T03:42:45.670Z,67.30
2019-05-15T03:43:49.333Z,68.03
2019-05-15T03:44:45.648Z,67.51
2019-05-15T03:45:49.043Z,67.51
2019-05-15T03:46:48.982Z,67.93
2019-05-15T03:47:48.928Z,67.51
2019-05-15T03:48:48.523Z,67.82
2019-05-15T03:49:45.653Z,68.03
2019-05-15T03:50:45.611Z,67.82
2019-05-15T03:51:46.239Z,68.24
2019-05-15T03:52:45.565Z,67.96
2019-05-15T03:53:45.571Z,67.86
2019-05-15T03:54:45.547Z,69.17
2019-05-15T03:55:45.538Z,69.07
2019-05-15T03:56:45.558Z,68.55
2019-05-15T03:57:45.535Z,67.30
2019-05-15T03:58:49.039Z,67.17
2019-05-15T03:59:45.485Z,66.86
2019-05-15T04:00:45.482Z,66.78
2019-05-15T04:01:45.492Z,66.58
2019-05-15T04:02:48.624Z,67.30
2019-05-15T04:03:45.438Z,67.30
2019-05-15T04:04:45.433Z,67.41
2019-05-15T04:05:45.440Z,67.30
2019-05-15T04:06:45.421Z,67.51
2019-05-15T04:07:45.431Z,67.41
2019-05-15T04:08:45.385Z,66.99
2019-05-15T04:09:45.375Z,67.72
2019-05-15T04:10:45.374Z,67.17
2019-05-15T04:11:45.367Z,67.27
2019-05-15T04:12:45.347Z,67.07
2019-05-15T04:13:45.366Z,66.75
2019-05-15T04:14:45.321Z,67.17
2019-05-15T04:15:45.308Z,66.55
2019-05-15T04:16:45.333Z,66.96
2019-05-15T04:17:45.290Z,67.07
2019-05-15T04:18:45.335Z,67.14
2019-05-15T04:19:45.271Z,67.66
2019-05-15T04:20:45.261Z,66.31
2019-05-15T04:21:45.418Z,66.83
2019-05-15T04:22:45.250Z,66.72
2019-05-15T04:23:45.225Z,66.24
2019-05-15T04:24:45.263Z,67.17
2019-05-15T04:25:45.203Z,66.55
2019-05-15T04:26:48.470Z,67.07
2019-05-15T04:27:45.183Z,66.44
2019-05-15T04:28:45.168Z,66.24
2019-05-15T04:29:45.176Z,66.78
2019-05-15T04:30:45.182Z,67.10
2019-05-15T04:31:58.955Z,67.30
2019-05-15T04:32:48.699Z,67.20
2019-05-15T04:33:45.120Z,67.58
2019-05-15T04:34:45.102Z,67.69
2019-05-15T04:35:45.141Z,67.48
2019-05-15T04:36:45.113Z,66.86
2019-05-15T04:37:45.071Z,67.58
2019-05-15T04:38:45.083Z,67.07
2019-05-15T04:39:45.064Z,67.48
2019-05-15T04:40:45.038Z,66.35
2019-05-15T04:41:45.034Z,66.14
2019-05-15T04:42:45.049Z,66.96
2019-05-15T04:43:45.466Z,66.55
2019-05-15T04:44:45.022Z,66.86
2019-05-15T04:45:45.017Z,66.24
2019-05-15T04:46:44.976Z,67.17
2019-05-15T04:47:45.026Z,67.10
2019-05-15T04:48:44.947Z,66.68
2019-05-15T04:49:44.937Z,66.68
2019-05-15T04:50:44.993Z,67.72
2019-05-15T04:51:44.915Z,67.61
2019-05-15T04:52:44.950Z,67.51
2019-05-15T04:53:44.946Z,68.24
2019-05-15T04:54:44.886Z,67.72
2019-05-15T04:55:44.873Z,68.31
2019-05-15T04:56:44.944Z,67.58
2019-05-15T04:57:44.885Z,67.07
2019-05-15T04:58:44.850Z,66.62
2019-05-15T04:59:44.848Z,66.52
2019-05-15T05:00:44.900Z,67.38
2019-05-15T05:01:44.837Z,66.62
2019-05-15T05:02:44.811Z,66.31
2019-05-15T05:03:44.790Z,66.93
2019-05-15T05:04:44.813Z,66.72
2019-05-15T05:05:44.837Z,67.14
2019-05-15T05:06:44.752Z,66.72
2019-05-15T05:07:44.740Z,67.17
2019-05-15T05:08:44.750Z,67.55
2019-05-15T05:09:44.721Z,67.24
2019-05-15T05:10:44.733Z,67.14
2019-05-15T05:11:44.736Z,67.45
2019-05-15T05:12:44.765Z,66.83
2019-05-15T05:13:44.679Z,66.11
2019-05-15T05:14:44.699Z,66.49
2019-05-15T05:15:44.663Z,66.28
2019-05-15T05:16:44.671Z,65.56
2019-05-15T05:17:44.683Z,65.69
2019-05-15T05:18:44.636Z,66.31
2019-05-15T05:19:44.612Z,67.11
2019-05-15T05:20:44.611Z,66.28
2019-05-15T05:21:44.618Z,65.25
2019-05-15T05:22:44.604Z,66.15
2019-05-15T05:23:44.605Z,65.73
2019-05-15T05:24:44.557Z,65.53
2019-05-15T05:25:44.560Z,66.05
2019-05-15T05:26:44.549Z,66.08
2019-05-15T05:27:44.531Z,65.84
2019-05-15T05:28:44.570Z,66.25
2019-05-15T05:29:44.511Z,66.05
2019-05-15T05:30:44.497Z,66.35
2019-05-15T05:31:44.482Z,66.12
2019-05-15T05:32:44.472Z,66.12
2019-05-15T05:33:44.469Z,66.02
2019-05-15T05:34:44.481Z,65.78
2019-05-15T05:35:44.472Z,65.88
2019-05-15T05:36:44.427Z,65.99
2019-05-15T05:37:44.417Z,65.23
2019-05-15T05:38:44.404Z,65.23
2019-05-15T05:39:44.431Z,64.74
2019-05-15T05:40:44.415Z,65.02
2019-05-15T05:41:44.480Z,64.43
2019-05-15T05:42:44.367Z,65.16
2019-05-15T05:43:44.359Z,66.12
2019-05-15T05:44:44.343Z,65.91
2019-05-15T05:45:44.371Z,66.02
2019-05-15T05:46:44.320Z,65.81
2019-05-15T05:47:44.351Z,65.81
2019-05-15T05:48:44.300Z,66.02
2019-05-15T05:49:44.295Z,66.12
2019-05-15T05:50:44.806Z,66.19
2019-05-15T05:51:44.327Z,66.60
2019-05-15T05:52:44.257Z,65.78
2019-05-15T05:53:44.250Z,65.78
2019-05-15T05:54:44.255Z,66.19
2019-05-15T05:55:44.249Z,65.78
2019-05-15T05:56:44.211Z,65.88
2019-05-15T05:57:44.234Z,67.25
2019-05-15T05:58:44.191Z,67.02
2019-05-15T05:59:44.178Z,67.33
2019-05-15T06:00:44.169Z,66.88
2019-05-15T06:01:44.469Z,66.67
2019-05-15T06:02:47.994Z,66.57
2019-05-15T06:03:44.147Z,66.06
2019-05-15T06:04:44.123Z,65.85
2019-05-15T06:05:44.119Z,65.95
2019-05-15T06:06:44.121Z,65.85
2019-05-15T06:07:44.092Z,66.57
2019-05-15T06:08:44.123Z,66.26
2019-05-15T06:09:44.094Z,65.41
2019-05-15T06:10:44.071Z,65.61
2019-05-15T06:11:44.050Z,65.09
2019-05-15T06:12:44.056Z,65.92
2019-05-15T06:13:44.026Z,65.17
2019-05-15T06:14:44.060Z,65.30
2019-05-15T06:15:44.018Z,65.82
2019-05-15T06:16:44.034Z,65.06
2019-05-15T06:17:43.996Z,65.37
2019-05-15T06:18:43.976Z,65.37
2019-05-15T06:19:43.962Z,65.03
2019-05-15T06:20:43.998Z,65.03
2019-05-15T06:21:54.604Z,63.49
2019-05-15T06:22:44.939Z,63.90
2019-05-15T06:23:46.019Z,63.69
2019-05-15T06:24:43.980Z,63.18
2019-05-15T06:25:43.939Z,62.66
2019-05-15T06:26:43.926Z,63.77
2019-05-15T06:27:43.874Z,63.87
2019-05-15T06:28:43.874Z,63.15
2019-05-15T06:29:43.884Z,62.32
2019-05-15T06:30:43.849Z,63.15
2019-05-15T06:31:43.830Z,63.84
2019-05-15T06:32:59.884Z,62.32
2019-05-15T06:33:43.836Z,61.70
2019-05-15T06:34:43.799Z,63.25
2019-05-15T06:35:43.793Z,63.35
2019-05-15T06:36:43.980Z,63.56
2019-05-15T06:37:43.795Z,63.15
2019-05-15T06:38:43.883Z,63.04
2019-05-15T06:39:43.783Z,62.43
2019-05-15T06:40:43.735Z,62.50
2019-05-15T06:41:43.726Z,62.19
2019-05-15T06:42:43.726Z,61.36
2019-05-15T06:43:43.709Z,61.68
2019-05-15T06:44:43.726Z,61.36
2019-05-15T06:45:43.681Z,61.78
2019-05-15T06:46:43.675Z,61.36
2019-05-15T06:47:43.727Z,61.05
2019-05-15T06:48:43.650Z,61.47
2019-05-15T06:49:43.647Z,62.29
2019-05-15T06:50:43.660Z,61.36
2019-05-15T06:51:43.618Z,61.36
2019-05-15T06:52:43.616Z,61.65
2019-05-15T06:53:43.602Z,60.93
2019-05-15T06:54:43.631Z,59.89
2019-05-15T06:55:43.584Z,59.86
2019-05-15T06:56:43.610Z,60.89
2019-05-15T06:57:43.549Z,60.07
2019-05-15T06:58:43.545Z,59.56
2019-05-15T06:59:43.671Z,58.53
2019-05-15T07:00:43.520Z,58.29
2019-05-15T07:01:43.516Z,58.60
2019-05-15T07:02:43.629Z,59.63
2019-05-15T07:03:43.483Z,58.68
2019-05-15T07:04:43.496Z,58.89
2019-05-15T07:05:43.509Z,58.06
2019-05-15T07:06:43.480Z,57.75
2019-05-15T07:07:43.466Z,56.82
2019-05-15T07:08:43.483Z,56.72
2019-05-15T07:09:43.443Z,57.42
2019-05-15T07:10:44.171Z,58.14
2019-05-15T07:11:43.433Z,57.01
2019-05-15T07:12:43.406Z,57.31
2019-05-15T07:13:43.423Z,55.36
2019-05-15T07:14:43.404Z,55.98
2019-05-15T07:15:43.382Z,56.49
2019-05-15T07:16:43.489Z,56.18
2019-05-15T07:17:43.339Z,56.67
2019-05-15T07:18:43.329Z,55.85
2019-05-15T07:19:43.348Z,55.43
2019-05-15T07:20:43.329Z,55.57
2019-05-15T07:21:43.301Z,55.66
2019-05-15T07:22:43.363Z,55.57
2019-05-15T07:23:43.264Z,55.15
2019-05-15T07:24:43.496Z,54.85
2019-05-15T07:25:43.270Z,55.26
2019-05-15T07:26:43.245Z,55.05
2019-05-15T07:27:43.224Z,55.77
2019-05-15T07:28:43.217Z,55.77
2019-05-15T07:29:43.210Z,55.64
2019-05-15T07:30:43.233Z,53.92
2019-05-15T07:31:43.205Z,55.26
2019-05-15T07:32:43.169Z,52.89
2019-05-15T07:33:44.019Z,54.33
2019-05-15T07:34:43.190Z,55.57
2019-05-15T07:35:43.175Z,56.18
2019-05-15T07:36:43.172Z,53.50
2019-05-15T07:37:43.136Z,52.86
2019-05-15T07:38:43.113Z,51.42
2019-05-15T07:39:43.157Z,51.84
2019-05-15T07:40:43.107Z,51.94
2019-05-15T07:41:43.109Z,51.61
2019-05-15T07:42:43.116Z,52.53
2019-05-15T07:43:43.056Z,50.48
2019-05-15T07:44:43.086Z,50.48
2019-05-15T07:45:44.591Z,51.30
2019-05-15T07:46:43.018Z,51.20
2019-05-15T07:47:43.074Z,51.40
2019-05-15T07:48:44.048Z,51.01
2019-05-15T07:49:42.981Z,51.12
2019-05-15T07:50:42.973Z,50.19
2019-05-15T07:51:42.972Z,49.98
2019-05-15T07:52:42.992Z,50.09
2019-05-15T07:53:42.993Z,50.19
2019-05-15T07:54:42.924Z,51.01
2019-05-15T07:55:43.028Z,50.91
2019-05-15T07:56:42.917Z,50.99
2019-05-15T07:57:42.913Z,50.37
2019-05-15T07:58:42.882Z,50.48
2019-05-15T07:59:42.885Z,51.20
2019-05-15T08:00:42.895Z,51.09
2019-05-15T08:01:42.909Z,50.96
2019-05-15T08:02:42.837Z,51.17
2019-05-15T08:03:56.682Z,51.15
2019-05-15T08:04:43.834Z,49.71
2019-05-15T08:05:56.155Z,49.09
2019-05-15T08:06:42.840Z,49.81
2019-05-15T08:07:42.841Z,50.02
2019-05-15T08:08:42.773Z,48.86
2019-05-15T08:09:42.783Z,49.07
2019-05-15T08:10:42.756Z,49.89
2019-05-15T08:11:42.750Z,48.76
2019-05-15T08:12:42.726Z,49.58
2019-05-15T08:13:42.763Z,48.76
2019-05-15T08:14:42.735Z,47.94
2019-05-15T08:15:42.696Z,48.97
2019-05-15T08:16:42.693Z,48.97
2019-05-15T08:18:00.267Z,48.76
2019-05-15T08:18:42.728Z,49.17
2019-05-15T08:19:42.705Z,49.17
2019-05-15T08:20:42.651Z,48.76
2019-05-15T08:21:42.625Z,51.20
2019-05-15T08:22:45.827Z,48.94
2019-05-15T08:23:42.605Z,49.15
2019-05-15T08:24:42.592Z,48.54
2019-05-15T08:25:42.673Z,48.84
2019-05-15T08:26:45.500Z,48.10
2019-05-15T08:27:42.562Z,48.00
2019-05-15T08:28:42.562Z,48.74
2019-05-15T08:29:42.547Z,48.41
2019-05-15T08:30:42.705Z,48.72
2019-05-15T08:31:42.549Z,48.21
2019-05-15T08:32:42.504Z,49.02
2019-05-15T08:33:42.500Z,48.10
2019-05-15T08:34:43.200Z,48.00
2019-05-15T08:35:45.879Z,47.71
2019-05-15T08:36:42.550Z,47.18
2019-05-15T08:37:42.457Z,48.13
2019-05-15T08:38:42.440Z,48.13
2019-05-15T08:39:42.438Z,48.04
2019-05-15T08:40:42.454Z,49.15
2019-05-15T08:41:42.409Z,47.38
2019-05-15T08:42:42.399Z,47.92
2019-05-15T08:43:42.470Z,46.77
2019-05-15T08:44:42.377Z,46.56
2019-05-15T08:45:42.378Z,45.54
2019-05-15T08:46:44.333Z,46.95
2019-05-15T08:47:42.351Z,46.34
2019-05-15T08:48:42.345Z,45.42
2019-05-15T08:49:42.336Z,45.31
2019-05-15T08:50:42.327Z,45.50
2019-05-15T08:51:42.353Z,45.50
2019-05-15T08:52:42.289Z,44.14
2019-05-15T08:53:42.275Z,44.64
2019-05-15T08:54:42.270Z,43.82
2019-05-15T08:55:42.265Z,44.02
2019-05-15T08:56:42.249Z,44.64
2019-05-15T08:57:42.277Z,43.71
2019-05-15T08:58:42.254Z,43.61
2019-05-15T08:59:42.209Z,43.10
2019-05-15T09:00:44.150Z,42.87
2019-05-15T09:01:42.280Z,42.58
2019-05-15T09:02:42.182Z,42.87
2019-05-15T09:03:42.214Z,43.10
2019-05-15T09:04:42.155Z,43.10
2019-05-15T09:05:42.154Z,43.73
2019-05-15T09:06:42.208Z,44.35
2019-05-15T09:07:42.124Z,43.63
2019-05-15T09:08:42.151Z,43.84
2019-05-15T09:09:42.120Z,44.64
2019-05-15T09:10:42.125Z,43.51
2019-05-15T09:11:42.105Z,44.12
2019-05-15T09:12:42.141Z,44.51
2019-05-15T09:13:43.952Z,43.98
2019-05-15T09:14:42.084Z,43.69
2019-05-15T09:15:42.035Z,43.77
2019-05-15T09:16:42.029Z,42.03
2019-05-15T09:17:42.052Z,42.85
2019-05-15T09:18:42.099Z,43.04
2019-05-15T09:19:41.998Z,43.77
2019-05-15T09:20:42.001Z,42.44
2019-05-15T09:21:41.999Z,42.43
2019-05-15T09:22:41.966Z,42.12
2019-05-15T09:23:41.952Z,42.96
2019-05-15T09:24:41.976Z,43.16
2019-05-15T09:25:42.135Z,42.44
2019-05-15T09:26:41.938Z,43.55
2019-05-15T09:27:41.908Z,42.73
2019-05-15T09:28:41.908Z,42.73
2019-05-15T09:29:41.881Z,42.83
2019-05-15T09:30:41.913Z,44.24
2019-05-15T09:31:41.909Z,42.41
2019-05-15T09:32:41.861Z,42.91
2019-05-15T09:33:41.890Z,44.35
2019-05-15T09:34:50.743Z,43.53
2019-05-15T09:35:41.820Z,44.45
2019-05-15T09:36:45.074Z,42.43
2019-05-15T09:37:41.846Z,42.73
2019-05-15T09:38:41.808Z,45.08
2019-05-15T09:39:41.777Z,44.17
2019-05-15T09:40:46.131Z,43.96
2019-05-15T09:41:41.767Z,44.04
2019-05-15T09:42:41.779Z,45.37
2019-05-15T09:43:42.395Z,44.04
2019-05-15T09:44:41.749Z,43.94
2019-05-15T09:45:41.715Z,44.04
2019-05-15T09:46:41.713Z,44.65
2019-05-15T09:47:41.780Z,45.98
2019-05-15T09:48:41.702Z,44.35
2019-05-15T09:49:41.688Z,42.71
2019-05-15T09:50:41.651Z,43.20
2019-05-15T09:51:41.702Z,43.61
2019-05-15T09:52:41.698Z,44.84
2019-05-15T09:53:41.646Z,45.55
2019-05-15T09:54:41.626Z,45.14
2019-05-15T09:55:41.625Z,44.22
2019-05-15T09:56:41.587Z,42.91
2019-05-15T09:57:41.575Z,43.91
2019-05-15T09:58:41.604Z,44.63
2019-05-15T09:59:41.586Z,45.45
2019-05-15T10:00:41.559Z,43.71
2019-05-15T10:01:41.598Z,43.69
2019-05-15T10:02:41.520Z,44.00
2019-05-15T10:03:44.313Z,44.73
2019-05-15T10:04:41.588Z,44.63
2019-05-15T10:05:41.491Z,44.73
2019-05-15T10:06:41.490Z,44.41
2019-05-15T10:07:41.477Z,42.67
2019-05-15T10:08:41.512Z,44.53
2019-05-15T10:09:41.444Z,44.12
2019-05-15T10:10:41.472Z,44.73
2019-05-15T10:11:41.421Z,45.45
2019-05-15T10:12:41.587Z,44.73
2019-05-15T10:13:41.432Z,45.04
2019-05-15T10:14:41.389Z,44.71
2019-05-15T10:15:41.431Z,45.22
2019-05-15T10:16:41.459Z,45.53
2019-05-15T10:17:41.357Z,45.32
2019-05-15T10:18:41.414Z,44.18
2019-05-15T10:19:41.360Z,44.00
2019-05-15T10:20:41.328Z,44.31
2019-05-15T10:21:41.367Z,44.31
2019-05-15T10:22:41.343Z,44.22
2019-05-15T10:23:41.327Z,44.63
2019-05-15T10:24:41.367Z,44.84
2019-05-15T10:25:41.273Z,44.31
2019-05-15T10:26:41.267Z,45.32
2019-05-15T10:27:41.252Z,44.81
2019-05-15T10:28:41.354Z,44.28
2019-05-15T10:29:41.237Z,45.49
2019-05-15T10:30:41.232Z,44.49
2019-05-15T10:31:41.260Z,44.08
2019-05-15T10:32:41.189Z,43.57
2019-05-15T10:33:41.180Z,45.00
2019-05-15T10:34:41.167Z,43.98
2019-05-15T10:35:41.168Z,44.28
2019-05-15T10:36:41.174Z,45.53
2019-05-15T10:37:41.202Z,45.02
2019-05-15T10:38:41.126Z,45.43
2019-05-15T10:39:41.119Z,43.61
2019-05-15T10:40:58.146Z,44.73
2019-05-15T10:41:42.133Z,44.53
2019-05-15T10:42:41.124Z,45.12
2019-05-15T10:43:45.940Z,45.22
2019-05-15T10:44:42.087Z,45.22
2019-05-15T10:45:43.091Z,44.71
2019-05-15T10:46:41.040Z,44.08
2019-05-15T10:47:41.037Z,44.38
2019-05-15T10:48:41.053Z,43.88
2019-05-15T10:49:41.044Z,43.98
2019-05-15T10:50:41.002Z,44.31
2019-05-15T10:51:40.997Z,45.12
2019-05-15T10:52:40.978Z,45.12
2019-05-15T10:53:40.973Z,45.43
2019-05-15T10:54:40.985Z,44.71
2019-05-15T10:55:40.990Z,45.02
2019-05-15T10:56:40.931Z,44.92
2019-05-15T10:57:43.813Z,45.02
2019-05-15T10:58:40.914Z,45.43
2019-05-15T10:59:40.924Z,43.69
2019-05-15T11:00:40.881Z,43.69
2019-05-15T11:01:40.920Z,43.90
2019-05-15T11:02:40.877Z,44.41
2019-05-15T11:03:40.872Z,43.69
2019-05-15T11:04:40.846Z,44.51
2019-05-15T11:05:45.571Z,44.00
2019-05-15T11:06:42.040Z,44.81
2019-05-15T11:07:40.843Z,45.12
2019-05-15T11:08:40.985Z,44.38
2019-05-15T11:09:40.805Z,44.38
2019-05-15T11:10:41.848Z,43.69
2019-05-15T11:11:40.792Z,43.98
2019-05-15T11:12:40.792Z,43.37
2019-05-15T11:13:40.806Z,42.55
2019-05-15T11:14:40.764Z,42.77
2019-05-15T11:15:42.652Z,44.08
2019-05-15T11:16:40.725Z,43.16
2019-05-15T11:17:40.785Z,42.77
2019-05-15T11:18:40.961Z,42.45
2019-05-15T11:19:40.881Z,42.96
2019-05-15T11:20:41.301Z,42.35
2019-05-15T11:21:43.505Z,42.85
2019-05-15T11:22:42.968Z,42.65
2019-05-15T11:23:42.605Z,42.55
2019-05-15T11:24:40.617Z,42.65
2019-05-15T11:25:40.674Z,44.38
2019-05-15T11:26:40.595Z,43.37
2019-05-15T11:27:40.597Z,43.85
2019-05-15T11:28:40.607Z,44.06
2019-05-15T11:29:40.578Z,43.96
2019-05-15T11:30:40.816Z,43.75
2019-05-15T11:31:41.238Z,42.73
2019-05-15T11:32:40.531Z,42.51
2019-05-15T11:33:40.534Z,42.12
2019-05-15T11:34:40.657Z,42.83
2019-05-15T11:35:56.425Z,43.55
2019-05-15T11:36:41.632Z,43.44
2019-05-15T11:37:45.706Z,43.02
2019-05-15T11:38:40.469Z,42.51
2019-05-15T11:39:46.154Z,43.44
2019-05-15T11:40:41.450Z,42.21
2019-05-15T11:41:40.436Z,42.12
2019-05-15T11:42:40.433Z,42.83
2019-05-15T11:43:40.423Z,43.14
2019-05-15T11:44:40.446Z,42.53
2019-05-15T11:45:40.454Z,42.43
2019-05-15T11:46:40.380Z,41.82
2019-05-15T11:47:40.562Z,44.04
2019-05-15T11:48:40.398Z,42.10
2019-05-15T11:49:40.402Z,41.89
2019-05-15T11:50:40.346Z,42.10
2019-05-15T11:51:40.346Z,42.10
2019-05-15T11:52:40.737Z,42.12
2019-05-15T11:53:40.309Z,42.30
2019-05-15T11:54:40.364Z,41.51
2019-05-15T11:55:40.316Z,42.02
2019-05-15T11:56:40.278Z,41.71
2019-05-15T11:57:46.893Z,41.61
2019-05-15T11:58:40.248Z,41.92
2019-05-15T11:59:44.726Z,41.10
2019-05-15T12:00:40.235Z,41.92
2019-05-15T12:01:40.245Z,42.43
2019-05-15T12:02:40.221Z,41.61
2019-05-15T12:03:40.189Z,42.63
2019-05-15T12:04:40.176Z,42.63
2019-05-15T12:05:40.180Z,41.92
2019-05-15T12:06:40.188Z,41.92
2019-05-15T12:07:40.147Z,42.22
2019-05-15T12:08:40.163Z,41.82
2019-05-15T12:09:40.127Z,42.02
2019-05-15T12:10:40.159Z,43.32
2019-05-15T12:11:41.222Z,42.12
2019-05-15T12:12:40.090Z,42.94
2019-05-15T12:13:40.085Z,42.43
2019-05-15T12:14:40.089Z,42.33
2019-05-15T12:15:40.106Z,42.35
2019-05-15T12:16:40.290Z,43.16
2019-05-15T12:17:40.066Z,42.85
2019-05-15T12:18:40.028Z,43.67
2019-05-15T12:19:40.028Z,43.57
2019-05-15T12:20:40.042Z,42.85
2019-05-15T12:21:40.001Z,42.73
2019-05-15T12:22:39.980Z,44.16
2019-05-15T12:23:39.994Z,42.33
2019-05-15T12:24:40.679Z,42.04
2019-05-15T12:25:39.997Z,42.94
2019-05-15T12:26:40.006Z,41.51
2019-05-15T12:27:40.599Z,41.61
2019-05-15T12:28:40.669Z,42.14
2019-05-15T12:29:40.146Z,42.14
2019-05-15T12:30:40.563Z,41.63
2019-05-15T12:31:39.931Z,42.63
2019-05-15T12:32:40.619Z,42.33
2019-05-15T12:33:39.867Z,42.73
2019-05-15T12:34:39.853Z,41.71
2019-05-15T12:35:40.310Z,41.20
2019-05-15T12:36:52.111Z,41.92
2019-05-15T12:37:40.861Z,41.61
2019-05-15T12:38:40.100Z,42.43
2019-05-15T12:39:41.024Z,41.92
2019-05-15T12:59:39.629Z,41.98
2019-05-15T13:00:39.592Z,41.75
2019-05-15T13:01:39.643Z,40.94
2019-05-15T13:02:39.638Z,41.86
2019-05-15T13:03:39.537Z,41.14
2019-05-15T13:04:39.551Z,40.72
2019-05-15T13:05:39.574Z,40.41
2019-05-15T13:06:49.488Z,40.11
2019-05-15T13:07:40.565Z,40.92
2019-05-15T13:08:39.474Z,40.62
2019-05-15T13:09:39.463Z,40.41
2019-05-15T13:10:39.453Z,41.11
2019-05-15T13:11:39.449Z,40.19
2019-05-15T13:12:55.159Z,39.50